createdAt,value
2016-07-17T00:00:12.519Z,0
2016-07-17T00:01:12.507Z,0
2016-07-17T00:02:12.524Z,0
2016-07-17T00:03:12.507Z,0
2016-07-17T00:04:12.518Z,0
2016-07-17T00:05:12.489Z,0
2016-07-17T00:06:12.499Z,0
2016-07-17T00:07:12.506Z,0
2016-07-17T00:08:12.509Z,0
2016-07-17T00:09:13.217Z,0
2016-07-17T00:10:12.491Z,0
2016-07-17T00:11:12.482Z,0
2016-07-17T00:12:12.500Z,0
2016-07-17T00:13:12.492Z,0
2016-07-17T00:14:12.483Z,0
2016-07-17T00:15:12.483Z,0
2016-07-17T00:16:12.497Z,0
2016-07-17T00:17:12.495Z,0
2016-07-17T00:18:12.477Z,0
2016-07-17T00:19:12.472Z,0
2016-07-17T00:20:12.481Z,0
2016-07-17T00:21:12.465Z,0
2016-07-17T00:22:12.454Z,0
2016-07-17T00:23:12.455Z,0
2016-07-17T00:24:12.452Z,0
2016-07-17T00:25:12.441Z,0
2016-07-17T00:26:12.438Z,0
2016-07-17T00:27:12.441Z,0
2016-07-17T00:28:12.431Z,0
2016-07-17T00:29:12.436Z,0
2016-07-17T00:30:12.440Z,0
2016-07-17T00:31:13.888Z,0
2016-07-17T00:32:12.445Z,0
2016-07-17T00:33:12.451Z,0
2016-07-17T00:34:12.426Z,0
2016-07-17T00:35:12.433Z,0
2016-07-17T00:36:12.440Z,0
2016-07-17T00:37:12.413Z,0
2016-07-17T00:38:12.412Z,0
2016-07-17T00:39:12.399Z,0
2016-07-17T00:40:12.422Z,0
2016-07-17T00:41:12.411Z,0
2016-07-17T00:42:12.428Z,0
2016-07-17T00:43:12.616Z,0
2016-07-17T00:44:12.417Z,0
2016-07-17T00:45:12.426Z,0
2016-07-17T00:46:12.412Z,0
2016-07-17T00:47:12.417Z,0
2016-07-17T00:48:12.423Z,0
2016-07-17T00:49:12.384Z,0
2016-07-17T00:50:12.382Z,0
2016-07-17T00:51:12.383Z,0
2016-07-17T00:52:12.388Z,0
2016-07-17T00:53:13.123Z,0
2016-07-17T00:54:12.386Z,0
2016-07-17T00:55:12.377Z,0
2016-07-17T00:56:12.384Z,0
2016-07-17T00:57:12.369Z,0
2016-07-17T00:58:12.348Z,0
2016-07-17T00:59:13.094Z,0
2016-07-17T01:00:12.359Z,0
2016-07-17T01:01:12.360Z,0
2016-07-17T01:02:12.370Z,0
2016-07-17T01:03:12.357Z,0
2016-07-17T01:04:12.357Z,0
2016-07-17T01:05:12.380Z,0
2016-07-17T01:06:12.350Z,0
2016-07-17T01:07:12.336Z,0
2016-07-17T01:08:12.329Z,0
2016-07-17T01:09:12.333Z,0
2016-07-17T01:10:12.331Z,0
2016-07-17T01:11:12.333Z,0
2016-07-17T01:12:12.310Z,0
2016-07-17T01:13:12.317Z,0
2016-07-17T01:14:12.325Z,0
2016-07-17T01:15:12.328Z,0
2016-07-17T01:16:12.317Z,0
2016-07-17T01:17:12.340Z,0
2016-07-17T01:18:12.307Z,0
2016-07-17T01:19:12.306Z,0
2016-07-17T01:20:12.298Z,0
2016-07-17T01:21:12.308Z,0
2016-07-17T01:22:12.323Z,0
2016-07-17T01:23:12.322Z,0
2016-07-17T01:24:12.322Z,0
2016-07-17T01:25:12.304Z,0
2016-07-17T01:26:12.319Z,0
2016-07-17T01:27:12.312Z,0
2016-07-17T01:28:12.294Z,0
2016-07-17T01:29:12.295Z,0
2016-07-17T01:30:12.291Z,0
2016-07-17T01:31:12.272Z,0
2016-07-17T01:32:12.271Z,0
2016-07-17T01:33:12.265Z,0
2016-07-17T01:34:12.278Z,0
2016-07-17T01:35:12.285Z,0
2016-07-17T01:36:12.279Z,0
2016-07-17T01:37:12.265Z,0
2016-07-17T01:38:12.254Z,0
2016-07-17T01:39:12.274Z,0
2016-07-17T01:40:12.254Z,0
2016-07-17T01:41:12.271Z,0
2016-07-17T01:42:12.241Z,0
2016-07-17T01:43:12.286Z,0
2016-07-17T01:44:12.238Z,0
2016-07-17T01:45:12.235Z,0
2016-07-17T01:46:12.246Z,0
2016-07-17T01:47:12.229Z,0
2016-07-17T01:48:12.220Z,0
2016-07-17T01:49:12.226Z,0
2016-07-17T01:50:12.941Z,0
2016-07-17T01:51:12.229Z,0
2016-07-17T01:52:12.228Z,0
2016-07-17T01:53:12.208Z,0
2016-07-17T01:54:12.202Z,0
2016-07-17T01:55:12.211Z,0
2016-07-17T01:56:12.244Z,0
2016-07-17T01:57:12.192Z,0
2016-07-17T01:58:12.908Z,0
2016-07-17T01:59:12.183Z,0
2016-07-17T02:00:12.184Z,0
2016-07-17T02:01:12.178Z,0
2016-07-17T02:02:12.185Z,0
2016-07-17T02:03:12.188Z,0
2016-07-17T02:04:12.185Z,0
2016-07-17T02:05:12.183Z,0
2016-07-17T02:06:12.180Z,0
2016-07-17T02:07:12.184Z,0
2016-07-17T02:08:12.205Z,0
2016-07-17T02:09:12.176Z,0
2016-07-17T02:10:12.162Z,0
2016-07-17T02:11:12.196Z,0
2016-07-17T02:12:12.946Z,0
2016-07-17T02:13:12.147Z,0
2016-07-17T02:14:12.145Z,0
2016-07-17T02:15:12.165Z,0
2016-07-17T02:16:12.156Z,0
2016-07-17T02:17:12.126Z,0
2016-07-17T02:18:12.850Z,0
2016-07-17T02:19:12.170Z,0
2016-07-17T02:20:12.142Z,0
2016-07-17T02:21:12.177Z,0
2016-07-17T02:22:12.146Z,0
2016-07-17T02:23:12.118Z,0
2016-07-17T02:24:12.128Z,0
2016-07-17T02:25:12.123Z,0
2016-07-17T02:26:12.127Z,0
2016-07-17T02:27:12.122Z,0
2016-07-17T02:28:12.108Z,0
2016-07-17T02:29:12.821Z,0
2016-07-17T02:30:12.089Z,0
2016-07-17T02:31:12.098Z,0
2016-07-17T02:32:12.087Z,0
2016-07-17T02:33:12.093Z,0
2016-07-17T02:34:12.086Z,0
2016-07-17T02:35:12.089Z,0
2016-07-17T02:36:12.093Z,0
2016-07-17T02:37:12.093Z,0
2016-07-17T02:38:12.118Z,0
2016-07-17T02:39:12.116Z,0
2016-07-17T02:40:12.062Z,0
2016-07-17T02:41:12.062Z,0
2016-07-17T02:42:12.093Z,0
2016-07-17T02:43:12.759Z,0
2016-07-17T02:44:12.071Z,0
2016-07-17T02:45:12.061Z,0
2016-07-17T02:46:12.066Z,0
2016-07-17T02:47:12.059Z,4
2016-07-17T02:48:12.045Z,0
2016-07-17T02:49:12.054Z,0
2016-07-17T02:50:12.043Z,4
2016-07-17T02:51:12.034Z,8
2016-07-17T02:52:12.035Z,4
2016-07-17T02:53:12.031Z,4
2016-07-17T02:54:12.036Z,8
2016-07-17T02:55:12.033Z,8
2016-07-17T02:56:12.029Z,12
2016-07-17T02:57:12.038Z,12
2016-07-17T02:58:12.006Z,16
2016-07-17T02:59:12.013Z,12
2016-07-17T03:00:12.009Z,12
2016-07-17T03:01:12.016Z,12
2016-07-17T03:02:12.009Z,12
2016-07-17T03:03:11.990Z,16
2016-07-17T03:05:11.994Z,20
2016-07-17T03:06:12.006Z,20
2016-07-17T03:07:11.994Z,24
2016-07-17T03:08:11.995Z,24
2016-07-17T03:09:11.979Z,24
2016-07-17T03:10:11.981Z,28
2016-07-17T03:11:11.988Z,36
2016-07-17T03:12:11.963Z,40
2016-07-17T03:13:11.978Z,44
2016-07-17T03:14:11.978Z,48
2016-07-17T03:15:11.983Z,56
2016-07-17T03:16:11.955Z,52
2016-07-17T03:17:11.975Z,48
2016-07-17T03:18:11.955Z,44
2016-07-17T03:19:11.962Z,52
2016-07-17T03:20:11.942Z,60
2016-07-17T03:21:11.942Z,68
2016-07-17T03:22:11.937Z,76
2016-07-17T03:23:12.648Z,88
2016-07-17T03:24:11.943Z,92
2016-07-17T03:25:11.941Z,100
2016-07-17T03:26:12.021Z,108
2016-07-17T03:27:11.933Z,128
2016-07-17T03:28:11.933Z,156
2016-07-17T03:29:12.632Z,188
2016-07-17T03:30:26.806Z,224
2016-07-17T03:31:11.951Z,248
2016-07-17T03:32:12.636Z,288
2016-07-17T03:33:11.920Z,292
2016-07-17T03:34:11.923Z,272
2016-07-17T03:35:11.900Z,240
2016-07-17T03:36:12.150Z,228
2016-07-17T03:37:11.905Z,228
2016-07-17T03:38:11.936Z,240
2016-07-17T03:39:11.883Z,256
2016-07-17T03:40:11.950Z,272
2016-07-17T03:41:11.926Z,272
2016-07-17T03:42:11.884Z,280
2016-07-17T03:43:11.903Z,280
2016-07-17T03:44:11.977Z,260
2016-07-17T03:45:11.899Z,232
2016-07-17T03:46:12.135Z,216
2016-07-17T03:47:12.629Z,212
2016-07-17T03:48:11.885Z,224
2016-07-17T03:49:11.868Z,256
2016-07-17T03:50:11.880Z,288
2016-07-17T03:51:11.849Z,320
2016-07-17T03:52:11.903Z,336
2016-07-17T03:53:11.858Z,328
2016-07-17T03:54:11.846Z,304
2016-07-17T03:55:11.852Z,288
2016-07-17T03:56:11.838Z,284
2016-07-17T03:57:11.842Z,272
2016-07-17T03:58:11.848Z,264
2016-07-17T03:59:11.835Z,288
2016-07-17T04:00:11.824Z,352
2016-07-17T04:01:11.836Z,452
2016-07-17T04:02:11.833Z,488
2016-07-17T04:03:11.843Z,488
2016-07-17T04:04:11.836Z,504
2016-07-17T04:05:11.825Z,536
2016-07-17T04:06:11.834Z,580
2016-07-17T04:07:11.852Z,612
2016-07-17T04:08:11.863Z,624
2016-07-17T04:09:11.817Z,624
2016-07-17T04:10:11.949Z,656
2016-07-17T04:11:13.114Z,676
2016-07-17T04:12:12.960Z,684
2016-07-17T04:13:26.745Z,708
2016-07-17T04:14:12.042Z,728
2016-07-17T04:15:12.886Z,724
2016-07-17T04:16:11.797Z,644
2016-07-17T04:17:12.982Z,604
2016-07-17T04:19:12.702Z,692
2016-07-17T04:20:11.935Z,716
2016-07-17T04:21:27.308Z,824
2016-07-17T04:22:11.824Z,932
2016-07-17T04:23:26.973Z,1048
2016-07-17T04:24:12.587Z,1048
2016-07-17T04:25:13.812Z,1128
2016-07-17T04:26:12.470Z,1200
2016-07-17T04:27:11.776Z,1252
2016-07-17T04:28:12.596Z,1456
2016-07-17T04:29:26.617Z,1360
2016-07-17T04:30:12.325Z,1236
2016-07-17T04:31:12.762Z,1232
2016-07-17T04:32:12.026Z,1368
2016-07-17T04:33:11.733Z,1472
2016-07-17T04:34:11.791Z,1504
2016-07-17T04:35:11.762Z,1512
2016-07-17T04:36:11.789Z,1500
2016-07-17T04:37:12.618Z,1420
2016-07-17T04:38:11.726Z,1360
2016-07-17T04:39:11.712Z,1268
2016-07-17T04:40:11.725Z,1200
2016-07-17T04:41:12.456Z,1288
2016-07-17T04:42:11.702Z,1292
2016-07-17T04:43:11.702Z,1084
2016-07-17T04:44:11.702Z,876
2016-07-17T04:45:11.713Z,880
2016-07-17T04:46:11.689Z,976
2016-07-17T04:47:11.698Z,1132
2016-07-17T04:48:11.685Z,1448
2016-07-17T04:49:11.694Z,1840
2016-07-17T04:50:11.696Z,1932
2016-07-17T04:51:11.689Z,1748
2016-07-17T04:52:11.696Z,1688
2016-07-17T04:53:11.679Z,1708
2016-07-17T04:54:11.696Z,1760
2016-07-17T04:55:11.679Z,2004
2016-07-17T04:56:11.729Z,2184
2016-07-17T04:57:11.674Z,2212
2016-07-17T04:58:11.672Z,2084
2016-07-17T04:59:11.670Z,1900
2016-07-17T05:00:11.678Z,1916
2016-07-17T05:01:11.663Z,2220
2016-07-17T05:02:11.667Z,2516
2016-07-17T05:03:11.678Z,2608
2016-07-17T05:04:11.678Z,2704
2016-07-17T05:05:11.687Z,2912
2016-07-17T05:06:11.667Z,2912
2016-07-17T05:07:11.645Z,2684
2016-07-17T05:08:11.639Z,2452
2016-07-17T05:09:11.646Z,2308
2016-07-17T05:10:11.651Z,2268
2016-07-17T05:11:11.697Z,2276
2016-07-17T05:12:11.677Z,2476
2016-07-17T05:13:11.693Z,2824
2016-07-17T05:14:11.639Z,3144
2016-07-17T05:15:11.654Z,3424
2016-07-17T05:16:11.632Z,3640
2016-07-17T05:17:11.644Z,3656
2016-07-17T05:18:11.651Z,3504
2016-07-17T05:19:11.619Z,3348
2016-07-17T05:20:11.617Z,3144
2016-07-17T05:21:11.613Z,3096
2016-07-17T05:22:11.618Z,3276
2016-07-17T05:23:11.855Z,3272
2016-07-17T05:24:11.604Z,3192
2016-07-17T05:25:11.617Z,3196
2016-07-17T05:26:11.638Z,3280
2016-07-17T05:27:11.613Z,3420
2016-07-17T05:28:11.628Z,3600
2016-07-17T05:29:11.628Z,3532
2016-07-17T05:30:11.609Z,3228
2016-07-17T05:31:11.652Z,2976
2016-07-17T05:32:11.597Z,2788
2016-07-17T05:33:12.300Z,2752
2016-07-17T05:34:11.609Z,3036
2016-07-17T05:35:11.586Z,3512
2016-07-17T05:36:12.351Z,3900
2016-07-17T05:37:11.588Z,3724
2016-07-17T05:38:12.309Z,3268
2016-07-17T05:39:11.606Z,2944
2016-07-17T05:40:11.619Z,2876
2016-07-17T05:41:11.637Z,2680
2016-07-17T05:42:11.620Z,2472
2016-07-17T05:43:11.646Z,2628
2016-07-17T05:44:11.573Z,2736
2016-07-17T05:45:11.564Z,2808
2016-07-17T05:46:12.272Z,2892
2016-07-17T05:47:11.793Z,3092
2016-07-17T05:48:12.127Z,3208
2016-07-17T05:49:11.596Z,3176
2016-07-17T05:50:11.591Z,3304
2016-07-17T05:51:11.598Z,3720
2016-07-17T05:52:11.609Z,4396
2016-07-17T05:53:11.611Z,5160
2016-07-17T05:54:11.614Z,5512
2016-07-17T05:55:11.619Z,5544
2016-07-17T05:56:11.551Z,5076
2016-07-17T05:57:11.528Z,4332
2016-07-17T05:58:11.545Z,3928
2016-07-17T05:59:12.273Z,3676
2016-07-17T06:00:11.560Z,3360
2016-07-17T06:01:11.574Z,2868
2016-07-17T06:02:11.580Z,2440
2016-07-17T06:03:11.600Z,2204
2016-07-17T06:04:11.622Z,2216
2016-07-17T06:05:12.326Z,2440
2016-07-17T06:06:11.611Z,2796
2016-07-17T06:07:11.616Z,3100
2016-07-17T06:08:11.607Z,3104
2016-07-17T06:09:11.535Z,2912
2016-07-17T06:10:11.537Z,2680
2016-07-17T06:11:11.553Z,2572
2016-07-17T06:12:11.556Z,2452
2016-07-17T06:13:11.569Z,2212
2016-07-17T06:14:11.571Z,1980
2016-07-17T06:15:11.594Z,1812
2016-07-17T06:16:11.571Z,1692
2016-07-17T06:17:11.579Z,1620
2016-07-17T06:18:11.549Z,1688
2016-07-17T06:19:12.310Z,1936
2016-07-17T06:20:11.607Z,2276
2016-07-17T06:21:11.510Z,2484
2016-07-17T06:22:11.515Z,2340
2016-07-17T06:23:12.307Z,1984
2016-07-17T06:24:11.532Z,1576
2016-07-17T06:25:11.574Z,1256
2016-07-17T06:26:11.546Z,1112
2016-07-17T06:27:11.555Z,1076
2016-07-17T06:28:11.552Z,1088
2016-07-17T06:29:11.558Z,1120
2016-07-17T06:30:11.570Z,1196
2016-07-17T06:31:11.587Z,1344
2016-07-17T06:32:11.590Z,1520
2016-07-17T06:33:11.544Z,1660
2016-07-17T06:34:11.516Z,1716
2016-07-17T06:35:11.508Z,1672
2016-07-17T06:36:11.512Z,1628
2016-07-17T06:37:11.531Z,1636
2016-07-17T06:38:11.571Z,1684
2016-07-17T06:39:11.536Z,1740
2016-07-17T06:40:11.577Z,1880
2016-07-17T06:41:11.601Z,2116
2016-07-17T06:42:11.572Z,2336
2016-07-17T06:43:12.246Z,2496
2016-07-17T06:44:11.565Z,2636
2016-07-17T06:45:11.533Z,2760
2016-07-17T06:46:11.508Z,2968
2016-07-17T06:47:11.525Z,3216
2016-07-17T06:48:11.544Z,3484
2016-07-17T06:49:11.560Z,3652
2016-07-17T06:50:11.550Z,3708
2016-07-17T06:51:11.619Z,3684
2016-07-17T06:52:11.785Z,3536
2016-07-17T06:53:11.567Z,3292
2016-07-17T06:54:11.507Z,3056
2016-07-17T06:55:11.494Z,2936
2016-07-17T06:56:11.529Z,2712
2016-07-17T06:57:11.512Z,2448
2016-07-17T06:58:11.494Z,2276
2016-07-17T06:59:11.511Z,2164
2016-07-17T07:00:11.515Z,2240
2016-07-17T07:01:11.527Z,2628
2016-07-17T07:02:11.533Z,3184
2016-07-17T07:03:12.137Z,3588
2016-07-17T07:04:11.581Z,3592
2016-07-17T07:05:11.560Z,3292
2016-07-17T07:06:11.512Z,3152
2016-07-17T07:07:11.504Z,3124
2016-07-17T07:08:12.194Z,3128
2016-07-17T07:09:11.537Z,3200
2016-07-17T07:10:11.520Z,3256
2016-07-17T07:11:12.152Z,3428
2016-07-17T07:12:11.500Z,3672
2016-07-17T07:13:11.513Z,3804
2016-07-17T07:14:11.453Z,4080
2016-07-17T07:15:11.504Z,4616
2016-07-17T07:16:11.508Z,5348
2016-07-17T07:17:11.471Z,5984
2016-07-17T07:18:11.470Z,6240
2016-07-17T07:19:11.481Z,6120
2016-07-17T07:20:11.489Z,5716
2016-07-17T07:21:11.525Z,6008
2016-07-17T07:22:11.517Z,6168
2016-07-17T07:23:11.460Z,5876
2016-07-17T07:24:11.530Z,5288
2016-07-17T07:25:11.583Z,4220
2016-07-17T07:26:11.511Z,3664
2016-07-17T07:27:11.461Z,3716
2016-07-17T07:28:11.441Z,4392
2016-07-17T07:29:11.575Z,4704
2016-07-17T07:30:11.508Z,4952
2016-07-17T07:31:11.465Z,4624
2016-07-17T07:32:11.477Z,4340
2016-07-17T07:33:11.517Z,4016
2016-07-17T07:34:11.515Z,4732
2016-07-17T07:35:11.499Z,5664
2016-07-17T07:36:11.451Z,6056
2016-07-17T07:37:11.465Z,5980
2016-07-17T07:38:11.414Z,6204
2016-07-17T07:39:11.428Z,6456
2016-07-17T07:40:11.419Z,8036
2016-07-17T07:41:11.424Z,8992
2016-07-17T07:42:11.382Z,8908
2016-07-17T07:43:11.430Z,9988
2016-07-17T07:44:11.448Z,8824
2016-07-17T07:45:11.459Z,8628
2016-07-17T07:46:11.496Z,7508
2016-07-17T07:47:11.468Z,6848
2016-07-17T07:48:11.388Z,6040
2016-07-17T07:49:11.372Z,5612
2016-07-17T07:50:11.388Z,6036
2016-07-17T07:51:11.386Z,6032
2016-07-17T07:52:11.399Z,4772
2016-07-17T07:53:11.407Z,4072
2016-07-17T07:54:11.413Z,3940
2016-07-17T07:55:11.428Z,4932
2016-07-17T07:56:11.432Z,6464
2016-07-17T07:57:11.440Z,7920
2016-07-17T07:58:11.474Z,8276
2016-07-17T07:59:11.450Z,7592
2016-07-17T08:00:12.078Z,7032
2016-07-17T08:01:11.355Z,6476
2016-07-17T08:02:11.369Z,6924
2016-07-17T08:03:11.380Z,6580
2016-07-17T08:04:11.391Z,7476
2016-07-17T08:05:11.400Z,8036
2016-07-17T08:06:11.401Z,8488
2016-07-17T08:07:11.397Z,7408
2016-07-17T08:08:11.436Z,7648
2016-07-17T08:09:11.422Z,9328
2016-07-17T08:10:11.450Z,10676
2016-07-17T08:11:11.471Z,11160
2016-07-17T08:12:11.436Z,12148
2016-07-17T08:13:11.355Z,13908
2016-07-17T08:14:12.062Z,16616
2016-07-17T08:15:12.039Z,18144
2016-07-17T08:16:11.378Z,16992
2016-07-17T08:17:11.370Z,15384
2016-07-17T08:18:11.396Z,11940
2016-07-17T08:19:11.397Z,10796
2016-07-17T08:20:11.424Z,10280
2016-07-17T08:21:11.431Z,9680
2016-07-17T08:22:11.437Z,9116
2016-07-17T08:23:11.439Z,10368
2016-07-17T08:24:11.445Z,10976
2016-07-17T08:25:11.359Z,10264
2016-07-17T08:26:11.356Z,9732
2016-07-17T08:27:11.343Z,10640
2016-07-17T08:28:11.348Z,9316
2016-07-17T08:29:11.419Z,8116
2016-07-17T08:30:11.392Z,7844
2016-07-17T08:31:11.371Z,7324
2016-07-17T08:32:11.441Z,8032
2016-07-17T08:33:11.373Z,8840
2016-07-17T08:34:11.465Z,8752
2016-07-17T08:35:11.430Z,7504
2016-07-17T08:36:11.470Z,5496
2016-07-17T08:37:11.432Z,3720
2016-07-17T08:38:11.327Z,3112
2016-07-17T08:39:11.346Z,4128
2016-07-17T08:40:11.358Z,4332
2016-07-17T08:41:11.361Z,4544
2016-07-17T08:42:11.387Z,5124
2016-07-17T08:43:11.569Z,5084
2016-07-17T08:44:11.387Z,5152
2016-07-17T08:45:11.391Z,5668
2016-07-17T08:46:11.389Z,6684
2016-07-17T08:47:11.419Z,6348
2016-07-17T08:48:11.409Z,5856
2016-07-17T08:49:11.402Z,4852
2016-07-17T08:50:11.335Z,4224
2016-07-17T08:51:11.325Z,3796
2016-07-17T08:52:11.343Z,3672
2016-07-17T08:53:14.574Z,3572
2016-07-17T08:54:11.639Z,3720
2016-07-17T08:55:11.404Z,4544
2016-07-17T08:56:11.385Z,5416
2016-07-17T08:57:11.404Z,5500
2016-07-17T08:58:12.438Z,4984
2016-07-17T08:59:12.969Z,5356
2016-07-17T09:00:14.745Z,5416
2016-07-17T09:01:11.432Z,4528
2016-07-17T09:02:11.410Z,3028
2016-07-17T09:03:11.684Z,2672
2016-07-17T09:04:12.033Z,2776
2016-07-17T09:05:12.056Z,2988
2016-07-17T09:06:11.393Z,2944
2016-07-17T09:07:11.386Z,3408
2016-07-17T09:08:11.365Z,4340
2016-07-17T09:09:11.392Z,4368
2016-07-17T09:10:11.384Z,3864
2016-07-17T09:11:11.390Z,3424
2016-07-17T09:12:12.175Z,3568
2016-07-17T09:13:11.389Z,4904
2016-07-17T09:14:11.198Z,4504
2016-07-17T09:15:11.190Z,3396
2016-07-17T09:16:11.184Z,2484
2016-07-17T09:17:11.291Z,2116
2016-07-17T09:18:11.303Z,2900
2016-07-17T09:19:11.171Z,4600
2016-07-17T09:20:11.940Z,5296
2016-07-17T09:21:11.329Z,6480
2016-07-17T09:22:12.015Z,6908
2016-07-17T09:23:11.172Z,6752
2016-07-17T09:24:11.168Z,6672
2016-07-17T09:25:11.176Z,7604
2016-07-17T09:26:11.170Z,7008
2016-07-17T09:27:11.352Z,6020
2016-07-17T09:28:11.172Z,7044
2016-07-17T09:29:11.138Z,9304
2016-07-17T09:30:11.668Z,9488
2016-07-17T09:31:11.253Z,7268
2016-07-17T09:32:11.135Z,7096
2016-07-17T09:33:11.154Z,7484
2016-07-17T09:34:11.125Z,10616
2016-07-17T09:35:11.129Z,12624
2016-07-17T09:36:12.058Z,11588
2016-07-17T09:37:11.141Z,11812
2016-07-17T09:38:11.830Z,13964
2016-07-17T09:39:11.126Z,15940
2016-07-17T09:40:11.202Z,14868
2016-07-17T09:41:11.130Z,14420
2016-07-17T09:42:11.229Z,15152
2016-07-17T09:43:11.128Z,14512
2016-07-17T09:44:11.109Z,12380
2016-07-17T09:45:11.235Z,9720
2016-07-17T09:46:11.256Z,7224
2016-07-17T09:47:11.185Z,6044
2016-07-17T09:48:11.335Z,4736
2016-07-17T09:49:11.277Z,3916
2016-07-17T09:50:11.152Z,3896
2016-07-17T09:51:12.072Z,4788
2016-07-17T09:52:11.144Z,5988
2016-07-17T09:53:12.134Z,6428
2016-07-17T09:54:11.430Z,8088
2016-07-17T09:55:11.176Z,10812
2016-07-17T09:56:11.311Z,13216
2016-07-17T09:57:11.254Z,13812
2016-07-17T09:58:11.194Z,11340
2016-07-17T09:59:11.107Z,8604
2016-07-17T10:00:11.129Z,9348
2016-07-17T10:01:11.305Z,11800
2016-07-17T10:02:11.882Z,15176
2016-07-17T10:03:11.965Z,16292
2016-07-17T10:04:11.855Z,17984
2016-07-17T10:05:11.128Z,18880
2016-07-17T10:06:11.169Z,19808
2016-07-17T10:07:11.147Z,20800
2016-07-17T10:08:11.536Z,21376
2016-07-17T10:09:11.437Z,21792
2016-07-17T10:10:11.858Z,23712
2016-07-17T10:11:11.120Z,24768
2016-07-17T10:12:11.114Z,24576
2016-07-17T10:13:11.370Z,26368
2016-07-17T10:14:11.252Z,26464
2016-07-17T10:15:11.419Z,24320
2016-07-17T10:16:11.135Z,21152
2016-07-17T10:17:11.187Z,21056
2016-07-17T10:18:11.095Z,21792
2016-07-17T10:19:11.193Z,22560
2016-07-17T10:20:12.152Z,20768
2016-07-17T10:21:12.070Z,21440
2016-07-17T10:22:11.092Z,21056
2016-07-17T10:23:11.078Z,18560
2016-07-17T10:24:11.103Z,16800
2016-07-17T10:25:11.144Z,16120
2016-07-17T10:26:11.080Z,15416
2016-07-17T10:27:11.357Z,16192
2016-07-17T10:28:11.163Z,18624
2016-07-17T10:29:11.106Z,20000
2016-07-17T10:30:11.137Z,20704
2016-07-17T10:31:11.108Z,18560
2016-07-17T10:32:11.130Z,15988
2016-07-17T10:33:11.153Z,15260
2016-07-17T10:34:11.119Z,12860
2016-07-17T10:35:12.181Z,11280
2016-07-17T10:36:11.147Z,10076
2016-07-17T10:37:11.102Z,8100
2016-07-17T10:38:11.159Z,6224
2016-07-17T10:39:11.117Z,4908
2016-07-17T10:40:11.142Z,4084
2016-07-17T10:41:11.466Z,3792
2016-07-17T10:42:11.120Z,3680
2016-07-17T10:43:11.160Z,3216
2016-07-17T10:44:11.178Z,3040
2016-07-17T10:45:11.867Z,4236
2016-07-17T10:46:11.445Z,7740
2016-07-17T10:47:11.129Z,11316
2016-07-17T10:48:11.153Z,11032
2016-07-17T10:49:11.152Z,10464
2016-07-17T10:50:11.129Z,11896
2016-07-17T10:51:11.121Z,11600
2016-07-17T10:52:11.139Z,10288
2016-07-17T10:53:11.178Z,10808
2016-07-17T10:54:11.134Z,11204
2016-07-17T10:55:11.147Z,11692
2016-07-17T10:56:11.288Z,13344
2016-07-17T10:57:11.158Z,14112
2016-07-17T10:58:11.138Z,14760
2016-07-17T10:59:26.052Z,18720
2016-07-17T11:00:11.153Z,20960
2016-07-17T11:01:11.159Z,22400
2016-07-17T11:02:11.146Z,22624
2016-07-17T11:03:11.262Z,21792
2016-07-17T11:04:11.363Z,21056
2016-07-17T11:05:11.139Z,21024
2016-07-17T11:06:12.183Z,21312
2016-07-17T11:07:11.153Z,21184
2016-07-17T11:08:11.258Z,20480
2016-07-17T11:09:11.170Z,19552
2016-07-17T11:10:11.199Z,19296
2016-07-17T11:11:11.213Z,19616
2016-07-17T11:12:11.324Z,19360
2016-07-17T11:13:11.317Z,18656
2016-07-17T11:14:11.416Z,18368
2016-07-17T11:15:11.198Z,17952
2016-07-17T11:16:11.218Z,17696
2016-07-17T11:17:11.202Z,17504
2016-07-17T11:18:11.236Z,16740
2016-07-17T11:19:11.201Z,15940
2016-07-17T11:20:11.163Z,15736
2016-07-17T11:21:11.201Z,15776
2016-07-17T11:22:11.280Z,15388
2016-07-17T11:23:11.410Z,14956
2016-07-17T11:24:11.427Z,14988
2016-07-17T11:25:11.174Z,15804
2016-07-17T11:26:11.296Z,16268
2016-07-17T11:27:11.194Z,14932
2016-07-17T11:28:11.192Z,15108
2016-07-17T11:29:11.900Z,15076
2016-07-17T11:30:11.203Z,14180
2016-07-17T11:31:11.329Z,15024
2016-07-17T11:32:11.342Z,15232
2016-07-17T11:33:11.224Z,16020
2016-07-17T11:34:11.243Z,15416
2016-07-17T11:35:11.201Z,15424
2016-07-17T11:36:11.293Z,15488
2016-07-17T11:37:11.281Z,15220
2016-07-17T11:38:11.299Z,13536
2016-07-17T11:39:11.232Z,11132
2016-07-17T11:40:11.671Z,9748
2016-07-17T11:41:11.447Z,9136
2016-07-17T11:42:11.231Z,9124
2016-07-17T11:43:11.531Z,9324
2016-07-17T11:44:12.029Z,9868
2016-07-17T11:45:11.317Z,9640
2016-07-17T11:46:11.277Z,9464
2016-07-17T11:47:11.467Z,9240
2016-07-17T11:48:11.276Z,8476
2016-07-17T11:49:11.468Z,8228
2016-07-17T11:50:11.286Z,8464
2016-07-17T11:51:11.265Z,8988
2016-07-17T11:52:11.414Z,9016
2016-07-17T11:53:11.278Z,9084
2016-07-17T11:54:11.337Z,8980
2016-07-17T11:55:11.487Z,8040
2016-07-17T11:56:11.305Z,6568
2016-07-17T11:57:11.272Z,5912
2016-07-17T11:58:11.403Z,6960
2016-07-17T11:59:11.417Z,8028
2016-07-17T12:00:11.334Z,9244
2016-07-17T12:01:11.374Z,10728
2016-07-17T12:02:11.357Z,11632
2016-07-17T12:03:11.494Z,13488
2016-07-17T12:04:11.294Z,17472
2016-07-17T12:05:11.284Z,20192
2016-07-17T12:06:11.268Z,19776
2016-07-17T12:07:11.352Z,19712
2016-07-17T12:08:11.339Z,19168
2016-07-17T12:09:11.280Z,18592
2016-07-17T12:10:12.046Z,17408
2016-07-17T12:11:11.308Z,16176
2016-07-17T12:12:11.311Z,15208
2016-07-17T12:13:11.362Z,13536
2016-07-17T12:14:11.332Z,10992
2016-07-17T12:15:11.329Z,9620
2016-07-17T12:16:11.295Z,10896
2016-07-17T12:17:11.589Z,11920
2016-07-17T12:18:11.583Z,13180
2016-07-17T12:19:11.463Z,12888
2016-07-17T12:20:11.586Z,11904
2016-07-17T12:21:11.491Z,11844
2016-07-17T12:22:11.486Z,13204
2016-07-17T12:23:11.499Z,14040
2016-07-17T12:24:11.508Z,13312
2016-07-17T12:25:11.507Z,11840
2016-07-17T12:26:11.571Z,11176
2016-07-17T12:27:11.553Z,12444
2016-07-17T12:28:11.673Z,14196
2016-07-17T12:29:11.644Z,13764
2016-07-17T12:30:11.579Z,12744
2016-07-17T12:31:11.564Z,12568
2016-07-17T12:32:11.560Z,13528
2016-07-17T12:33:11.635Z,16204
2016-07-17T12:34:11.487Z,17664
2016-07-17T12:35:11.469Z,18080
2016-07-17T12:36:11.555Z,18176
2016-07-17T12:37:11.517Z,18496
2016-07-17T12:38:12.641Z,18976
2016-07-17T12:39:12.336Z,19360
2016-07-17T12:40:11.428Z,19200
2016-07-17T12:41:11.367Z,18688
2016-07-17T12:42:11.401Z,17504
2016-07-17T12:43:11.533Z,16236
2016-07-17T12:44:11.460Z,16896
2016-07-17T12:45:11.451Z,15024
2016-07-17T12:46:11.548Z,15116
2016-07-17T12:47:11.415Z,15044
2016-07-17T12:48:11.437Z,14884
2016-07-17T12:49:11.432Z,14524
2016-07-17T12:50:11.441Z,14144
2016-07-17T12:51:11.423Z,13016
2016-07-17T12:52:11.462Z,12396
2016-07-17T12:53:11.471Z,12484
2016-07-17T12:54:11.567Z,12452
2016-07-17T12:55:11.829Z,11640
2016-07-17T12:56:11.460Z,10512
2016-07-17T12:57:11.493Z,9332
2016-07-17T12:58:11.741Z,8568
2016-07-17T12:59:11.464Z,7804
2016-07-17T13:00:12.180Z,6728
2016-07-17T13:01:11.475Z,5628
2016-07-17T13:02:11.466Z,4460
2016-07-17T13:03:11.489Z,3700
2016-07-17T13:04:11.492Z,3536
2016-07-17T13:05:11.500Z,3520
2016-07-17T13:06:11.453Z,3260
2016-07-17T13:07:11.463Z,3024
2016-07-17T13:08:11.488Z,2976
2016-07-17T13:09:11.473Z,2808
2016-07-17T13:10:12.183Z,2564
2016-07-17T13:11:11.498Z,2308
2016-07-17T13:12:11.444Z,2128
2016-07-17T13:13:11.494Z,2324
2016-07-17T13:14:11.467Z,2900
2016-07-17T13:15:11.477Z,3488
2016-07-17T13:16:11.532Z,3760
2016-07-17T13:17:11.488Z,3820
2016-07-17T13:18:11.502Z,3932
2016-07-17T13:19:11.538Z,4604
2016-07-17T13:20:11.566Z,5420
2016-07-17T13:21:11.459Z,5868
2016-07-17T13:22:11.523Z,5916
2016-07-17T13:23:11.563Z,5740
2016-07-17T13:24:11.509Z,5684
2016-07-17T13:25:11.504Z,6588
2016-07-17T13:26:11.502Z,7728
2016-07-17T13:27:11.531Z,8104
2016-07-17T13:28:11.504Z,9156
2016-07-17T13:29:11.514Z,10116
2016-07-17T13:30:11.518Z,11024
2016-07-17T13:31:12.213Z,12492
2016-07-17T13:32:11.547Z,14912
2016-07-17T13:33:11.549Z,17024
2016-07-17T13:34:11.623Z,18784
2016-07-17T13:35:11.582Z,20000